Terminal Aerodrome Forecast
Issued by NWS Pocatello, ID

Home | Current Version | Previous Version | Text Only | Print | Product List | Glossary On
Versions: 1 2 3 4 5 6 7 8 9 10 11 12 13 14 15 16 17 18 19 20 21 22 23 24 25
041
FTUS45 KPIH 060714 AAA
TAFPIH
TAF AMD
KPIH 060714Z 0607/0706 VRB06KT 4SM BR SCT010
      TEMPO 0607/0610 1SM BR
     FM061000 19009KT P6SM FEW040 BKN100
     FM061400 20013G22KT P6SM SCT040 BKN100
     FM061900 22017G27KT P6SM SCT020 BKN060=

USA.gov is the U.S. government's official web portal to all federal, state and local government web resources and services.